Barbourville, KY (40906)

8:38 AM EST on January 26, 2015 (GMT -0500)
liford's | Change Station
CLOSE
Current Station
Personal Weather Station
Location: Barbourville, KY
Elevation: 1066 ft
Nearby Weather Stations
Active Advisory: Special Statement

Elev 1066 ft 36.84 °N, 83.85 °W | Updated 8 minutes ago

Snow
Snow
32.4 °F
Feels Like 32 °F
N
2.2
Wind Variable Wind from West

Today
High -- | Low -- °F
--% Chance of Precip.
Yesterday
High -- | Low -- °F
Precip. -- in
7:42 AM 5:54 PM
Waxing Crescent, 43% visible
Pressure 29.81 in
Visibility 9.0 miles
Clouds Mostly Cloudy 1400 ft
Overcast 2000 ft
Windchill 32 °F
Dew Point 32 °F
Humidity 99%
Rainfall 0.17 in
Snow Depth Not available.
UV 0 out of 12
Pollen .10 out of 12
Air Quality Not available.
Flu Activity Not available.
SPECI KLOZ 261334Z AUTO 32007G17KT 9SM BKN014 OVC020 M01/M05 A2981 RMK AO2 UPE08 P0000 T10111050

More Conditions Fewer Conditions

Pressure 29.81 in
Visibility 9.0 miles
Clouds Mostly Cloudy 1400 ft
Overcast 2000 ft
Windchill 32 °F
Dew Point 32 °F
Humidity 99%
Rainfall 0.17 in
Snow Depth Not available.
UV 0 out of 12
Pollen .10 out of 12
Air Quality Not available.
Flu Activity Not available.
SPECI KLOZ 261334Z AUTO 32007G17KT 9SM BKN014 OVC020 M01/M05 A2981 RMK AO2 UPE08 P0000 T10111050

More Conditions Fewer Conditions

10-Day Weather Forecast

Almanac

Astronomy

Jan. 26, 2015 Rise Set
Actual Time
Civil Twilight
Nautical Twilight
Astronomical Twilight
Moon
Length of Visible Light
Length of Day
Tomorrow will be .
, % of the Moon is Illuminated

Today's Extremes

State Highs State Lows

Community

WunderPhotos

Upload Photos

1,790,196 photos uploaded!

WunderBlogs® & News

Nearby

Air Quality

  Air Quality AQ Index Pollutant
Not available.

Snow Depth

Station Depth Elevation

Earthquake Activity

City Distance Mag. Time & Date
Minimum magnitude displayed is 2.5.

Coastal Water Temperatures

Place Temperature

Nearby Weather Stations